This is the latest recevied weather packets stored in our database for station/object EA3EH-1. If no packets are shown the sender has not sent any weather packets the latest 10 day(s).
| Time | Temp. | Humidity | Pressure | Rain* | Wind** | Luminosity | Snow |
|---|---|---|---|---|---|---|---|
| 1777732310 | 20° C | 19% | 1017 hPa | 0 mm | - | - | - |
| 1777731105 | 22.22° C | 16% | 1017 hPa | 0 mm | - | - | - |
| 1777730805 | 23.33° C | 13% | 1017 hPa | 0 mm | - | - | - |
| 1777730205 | 23.33° C | 15% | 1017 hPa | 0 mm | - | - | - |
| 1777729905 | 23.33° C | 15% | 1017 hPa | 0 mm | - | - | - |
| 1777728105 | 22.22° C | 21% | 1018 hPa | 0 mm | - | - | - |
| 1777727805 | 21.67° C | 22% | 1018 hPa | 0 mm | - | - | - |
| 1777727206 | 22.22° C | 22% | 1018 hPa | 0 mm | - | - | - |
| 1777726905 | 22.22° C | 23% | 1018 hPa | 0 mm | - | - | - |
| 1777726604 | 21.67° C | 23% | 1018 hPa | 0 mm | - | - | - |
| 1777725705 | 21.67° C | 23% | 1018 hPa | 0 mm | - | - | - |
| 1777725105 | 21.11° C | 28% | 1018 hPa | 0 mm | - | - | - |
| 1777724505 | 20° C | 32% | 1019 hPa | 0 mm | - | - | - |
| 1777723306 | 18.89° C | 35% | 1019 hPa | 0 mm | - | - | - |
| 1777722405 | 17.78° C | 40% | 1019 hPa | 0 mm | - | - | - |
| 1777722105 | 17.78° C | 40% | 1019 hPa | 0 mm | - | - | - |
| 1777721805 | 17.78° C | 39% | 1019 hPa | 0 mm | - | - | - |
| 1777720905 | 17.78° C | 38% | 1019 hPa | 0 mm | - | - | - |
| 1777718505 | 16.67° C | 43% | 1019 hPa | 0 mm | - | - | - |
| 1777718204 | 16.67° C | 44% | 1020 hPa | 0 mm | - | - | - |
| 1777717907 | 16.67° C | 45% | 1020 hPa | 0 mm | - | - | - |
| 1777716104 | 15.56° C | 46% | 1020 hPa | 0 mm | - | - | - |
| 1777715805 | 15.56° C | 46% | 1020 hPa | 0 mm | - | - | - |
| 1777715204 | 15.56° C | 46% | 1020 hPa | 0 mm | - | - | - |
| 1777714905 | 15.56° C | 46% | 1020 hPa | 0 mm | - | - | - |
* Rain latest hour (hover to see other rain measurements)
** Current wind speed in m/s (hover to see current wind gust speed)